5NYEM KDAL-KOPF
Flight info
| Callsign | 5NYEM |
|---|---|
| Flight time | N/A |
| Altitude | 45000 |
| Route | LNDRE5 ZALEA AEX LEV Y290 GAWKS CUURT1 |
| Aircraft | C750/M-SBDE3FGHRWXY/S |
Departure
| Time | 2026-05-05 18:45 |
|---|---|
| Airport | Dallas Love Field (KDAL) |
Arrival
| Time | N/A |
|---|---|
| Airport | Miami-Opa Locka Executive Airport (KOPF) |
| Time | Latitude | Longitude | Altitude | Speed | Heading |
|---|---|---|---|---|---|
| 2026-05-05 18:28 | 32.85126 | -96.85720 | 484 ft | 0 kts | 220° |
| 2026-05-05 18:40 | 32.85122 | -96.85725 | 482 ft | 2 kts | 220° |
| 2026-05-05 18:40 | 32.85105 | -96.85749 | 480 ft | 5 kts | 232° |
| 2026-05-05 18:40 | 32.85091 | -96.85796 | 482 ft | 7 kts | 255° |
| 2026-05-05 18:40 | 32.85069 | -96.85862 | 483 ft | 10 kts | 231° |
| 2026-05-05 18:41 | 32.85010 | -96.85917 | 482 ft | 12 kts | 217° |
| 2026-05-05 18:41 | 32.84976 | -96.85966 | 481 ft | 7 kts | 266° |
| 2026-05-05 18:41 | 32.84996 | -96.86006 | 481 ft | 5 kts | 317° |
| 2026-05-05 18:41 | 32.85012 | -96.86025 | 481 ft | 5 kts | 316° |
| 2026-05-05 18:42 | 32.85042 | -96.86059 | 481 ft | 4 kts | 316° |
| 2026-05-05 18:42 | 32.85060 | -96.86079 | 481 ft | 3 kts | 315° |
| 2026-05-05 18:42 | 32.85084 | -96.86107 | 481 ft | 6 kts | 315° |
| 2026-05-05 18:42 | 32.85121 | -96.86151 | 481 ft | 9 kts | 316° |
| 2026-05-05 18:43 | 32.85169 | -96.86205 | 481 ft | 10 kts | 315° |
| 2026-05-05 18:43 | 32.85182 | -96.86267 | 480 ft | 6 kts | 236° |
| 2026-05-05 18:43 | 32.85161 | -96.86292 | 477 ft | 7 kts | 223° |
| 2026-05-05 18:43 | 32.85150 | -96.86304 | 480 ft | 6 kts | 223° |
| 2026-05-05 18:44 | 32.85097 | -96.86303 | 479 ft | 1 kts | 133° |
| 2026-05-05 18:44 | 32.84973 | -96.86159 | 479 ft | 74 kts | 136° |
| 2026-05-05 18:44 | 32.84368 | -96.85460 | 548 ft | 147 kts | 144° |
| 2026-05-05 18:45 | 32.83615 | -96.84551 | 1082 ft | 163 kts | 141° |
| 2026-05-05 18:45 | 32.82815 | -96.83565 | 1824 ft | 167 kts | 139° |
| 2026-05-05 18:45 | 32.82261 | -96.82897 | 2312 ft | 177 kts | 140° |
| 2026-05-05 18:45 | 32.81046 | -96.81410 | 3273 ft | 196 kts | 141° |
| 2026-05-05 18:46 | 32.80725 | -96.81011 | 3526 ft | 200 kts | 140° |
| 2026-05-05 18:46 | 32.79073 | -96.78947 | 4858 ft | 214 kts | 140° |
| 2026-05-05 18:46 | 32.78383 | -96.78090 | 5335 ft | 221 kts | 140° |
| 2026-05-05 18:46 | 32.77251 | -96.76693 | 5761 ft | 247 kts | 139° |
| 2026-05-05 18:47 | 32.76843 | -96.76188 | 5896 ft | 256 kts | 139° |
| 2026-05-05 18:48 | 32.68232 | -96.63932 | 10358 ft | 353 kts | 99° |
| 2026-05-05 18:48 | 32.68122 | -96.60877 | 10438 ft | 383 kts | 91° |
| 2026-05-05 18:49 | 32.68156 | -96.57663 | 10916 ft | 394 kts | 90° |
| 2026-05-05 18:49 | 32.68135 | -96.54457 | 11644 ft | 397 kts | 93° |
| 2026-05-05 18:49 | 32.67774 | -96.51191 | 12200 ft | 402 kts | 103° |
| 2026-05-05 18:49 | 32.67237 | -96.47906 | 12890 ft | 407 kts | 103° |
| 2026-05-05 18:50 | 32.66757 | -96.44574 | 13538 ft | 414 kts | 101° |
| 2026-05-05 18:50 | 32.66325 | -96.41176 | 14142 ft | 418 kts | 101° |
| 2026-05-05 18:50 | 32.66022 | -96.38918 | 14552 ft | 421 kts | 102° |
| 2026-05-05 18:50 | 32.65517 | -96.35479 | 15159 ft | 425 kts | 103° |
| 2026-05-05 18:51 | 32.65002 | -96.31997 | 15765 ft | 430 kts | 102° |
| 2026-05-05 18:51 | 32.64512 | -96.28480 | 16394 ft | 434 kts | 102° |
| 2026-05-05 18:51 | 32.64021 | -96.24930 | 17023 ft | 438 kts | 102° |
| 2026-05-05 18:51 | 32.63505 | -96.21341 | 17671 ft | 443 kts | 103° |
| 2026-05-05 18:52 | 32.62978 | -96.17720 | 18290 ft | 448 kts | 103° |
| 2026-05-05 18:52 | 32.62453 | -96.14049 | 18825 ft | 455 kts | 102° |
| 2026-05-05 18:52 | 32.61923 | -96.10321 | 19390 ft | 461 kts | 102° |
| 2026-05-05 18:52 | 32.61380 | -96.06548 | 19955 ft | 467 kts | 102° |
| 2026-05-05 18:53 | 32.60825 | -96.02717 | 20511 ft | 474 kts | 102° |
| 2026-05-05 18:53 | 32.60263 | -95.98833 | 21067 ft | 481 kts | 102° |
| 2026-05-05 18:53 | 32.59695 | -95.94894 | 21630 ft | 488 kts | 102° |
| 2026-05-05 18:53 | 32.59115 | -95.90900 | 22196 ft | 494 kts | 102° |
| 2026-05-05 18:54 | 32.58526 | -95.86861 | 22763 ft | 501 kts | 102° |
| 2026-05-05 18:54 | 32.57928 | -95.82766 | 23318 ft | 508 kts | 101° |
| 2026-05-05 18:54 | 32.57322 | -95.78614 | 23822 ft | 513 kts | 101° |
| 2026-05-05 18:54 | 32.56710 | -95.74432 | 24375 ft | 517 kts | 101° |
| 2026-05-05 18:55 | 32.56090 | -95.70216 | 24895 ft | 521 kts | 101° |
| 2026-05-05 18:55 | 32.55464 | -95.65970 | 25430 ft | 525 kts | 101° |
| 2026-05-05 18:55 | 32.54832 | -95.61686 | 25964 ft | 529 kts | 101° |
| 2026-05-05 18:55 | 32.54195 | -95.57375 | 26488 ft | 533 kts | 101° |
| 2026-05-05 18:56 | 32.53550 | -95.53029 | 27018 ft | 538 kts | 101° |
| 2026-05-05 18:56 | 32.52907 | -95.48708 | 27554 ft | 542 kts | 101° |
| 2026-05-05 18:56 | 32.52249 | -95.44291 | 28081 ft | 546 kts | 101° |
| 2026-05-05 18:56 | 32.51585 | -95.39854 | 28608 ft | 550 kts | 101° |
| 2026-05-05 18:57 | 32.50914 | -95.35375 | 29096 ft | 554 kts | 101° |
| 2026-05-05 18:57 | 32.50235 | -95.30856 | 29579 ft | 558 kts | 101° |
| 2026-05-05 18:57 | 32.49553 | -95.26321 | 30021 ft | 562 kts | 101° |
| 2026-05-05 18:57 | 32.48861 | -95.21742 | 30399 ft | 566 kts | 101° |
| 2026-05-05 18:58 | 32.48166 | -95.17145 | 30811 ft | 569 kts | 101° |
| 2026-05-05 18:58 | 32.47468 | -95.12544 | 31402 ft | 567 kts | 102° |
| 2026-05-05 18:58 | 32.46769 | -95.07949 | 31974 ft | 566 kts | 102° |
| 2026-05-05 18:58 | 32.46069 | -95.03359 | 32517 ft | 566 kts | 102° |
| 2026-05-05 18:59 | 32.45367 | -94.98773 | 33091 ft | 566 kts | 102° |
| 2026-05-05 18:59 | 32.44665 | -94.94195 | 33660 ft | 566 kts | 102° |
| 2026-05-05 18:59 | 32.43961 | -94.89612 | 34168 ft | 566 kts | 102° |
| 2026-05-05 18:59 | 32.43255 | -94.85029 | 34673 ft | 565 kts | 102° |
| 2026-05-05 19:00 | 32.42549 | -94.80457 | 35186 ft | 565 kts | 102° |
| 2026-05-05 19:00 | 32.41987 | -94.76829 | 35605 ft | 564 kts | 102° |
| 2026-05-05 19:00 | 32.41400 | -94.73042 | 36045 ft | 564 kts | 102° |
| 2026-05-05 19:00 | 32.40691 | -94.68485 | 36563 ft | 564 kts | 102° |
| 2026-05-05 19:01 | 32.39980 | -94.63923 | 37086 ft | 563 kts | 102° |
| 2026-05-05 19:01 | 32.39266 | -94.59353 | 37614 ft | 563 kts | 102° |
| 2026-05-05 19:01 | 32.38553 | -94.54800 | 38161 ft | 563 kts | 102° |
| 2026-05-05 19:01 | 32.37837 | -94.50240 | 38667 ft | 563 kts | 102° |
| 2026-05-05 19:02 | 32.37120 | -94.45687 | 39155 ft | 562 kts | 102° |
| 2026-05-05 19:02 | 32.36403 | -94.41144 | 39669 ft | 561 kts | 102° |
| 2026-05-05 19:02 | 32.35688 | -94.36619 | 40178 ft | 559 kts | 102° |
| 2026-05-05 19:02 | 32.34973 | -94.32110 | 40678 ft | 558 kts | 102° |
| 2026-05-05 19:03 | 32.34258 | -94.27609 | 41177 ft | 556 kts | 102° |
| 2026-05-05 19:03 | 32.33542 | -94.23118 | 41653 ft | 555 kts | 102° |
| 2026-05-05 19:03 | 32.32827 | -94.18639 | 42115 ft | 554 kts | 102° |
| 2026-05-05 19:03 | 32.32122 | -94.14235 | 42574 ft | 552 kts | 102° |
| 2026-05-05 19:04 | 32.31397 | -94.09717 | 43040 ft | 551 kts | 102° |
| 2026-05-05 19:04 | 32.30684 | -94.05280 | 43451 ft | 550 kts | 102° |
| 2026-05-05 19:04 | 32.29977 | -94.00896 | 43851 ft | 549 kts | 102° |
| 2026-05-05 19:04 | 32.29262 | -93.96468 | 44255 ft | 548 kts | 102° |
| 2026-05-05 19:05 | 32.28545 | -93.92045 | 44616 ft | 546 kts | 102° |
| 2026-05-05 19:05 | 32.27833 | -93.87653 | 44851 ft | 545 kts | 102° |
| 2026-05-05 19:05 | 32.26380 | -93.78739 | 44832 ft | 559 kts | 102° |
| 2026-05-05 19:06 | 32.24887 | -93.69611 | 44849 ft | 571 kts | 102° |
| 2026-05-05 19:06 | 32.23357 | -93.60307 | 44848 ft | 582 kts | 102° |
| 2026-05-05 19:07 | 32.21207 | -93.51091 | 44834 ft | 582 kts | 115° |
| 2026-05-05 19:07 | 32.17204 | -93.42922 | 44840 ft | 570 kts | 133° |
| 2026-05-05 19:08 | 32.11677 | -93.36455 | 44845 ft | 553 kts | 150° |
| 2026-05-05 19:08 | 32.05444 | -93.31238 | 44857 ft | 549 kts | 153° |
| 2026-05-05 19:09 | 31.99519 | -93.25543 | 44858 ft | 558 kts | 144° |
| 2026-05-05 19:09 | 31.93894 | -93.19235 | 44869 ft | 555 kts | 146° |
| 2026-05-05 19:10 | 31.87957 | -93.13461 | 44874 ft | 554 kts | 147° |
| 2026-05-05 19:10 | 31.82195 | -93.07376 | 44883 ft | 556 kts | 145° |
| 2026-05-05 19:11 | 31.76335 | -93.01485 | 44882 ft | 554 kts | 147° |
| 2026-05-05 19:11 | 31.70518 | -92.95508 | 44875 ft | 556 kts | 145° |
| 2026-05-05 19:12 | 31.64681 | -92.89568 | 44878 ft | 554 kts | 147° |
| 2026-05-05 19:12 | 31.58848 | -92.83648 | 44875 ft | 555 kts | 146° |
| 2026-05-05 19:13 | 31.53019 | -92.77713 | 44881 ft | 554 kts | 146° |
| 2026-05-05 19:13 | 31.47184 | -92.71819 | 44889 ft | 554 kts | 146° |
| 2026-05-05 19:14 | 31.41356 | -92.65906 | 44894 ft | 554 kts | 146° |
| 2026-05-05 19:14 | 31.35515 | -92.60021 | 44897 ft | 554 kts | 146° |
| 2026-05-05 19:15 | 31.29726 | -92.54173 | 44898 ft | 553 kts | 146° |
| 2026-05-05 19:15 | 31.23990 | -92.48155 | 44910 ft | 553 kts | 141° |
| 2026-05-05 19:16 | 31.18622 | -92.41691 | 44896 ft | 558 kts | 140° |
| 2026-05-05 19:16 | 31.13144 | -92.35248 | 44915 ft | 559 kts | 141° |
| 2026-05-05 19:17 | 31.07705 | -92.28784 | 44919 ft | 557 kts | 140° |
| 2026-05-05 19:17 | 31.02263 | -92.22368 | 44915 ft | 556 kts | 141° |
| 2026-05-05 19:18 | 30.96820 | -92.15947 | 44916 ft | 556 kts | 140° |
| 2026-05-05 19:18 | 30.91379 | -92.09541 | 44914 ft | 556 kts | 141° |
| 2026-05-05 19:19 | 30.85933 | -92.03143 | 44917 ft | 555 kts | 141° |
| 2026-05-05 19:19 | 30.80493 | -91.96759 | 44921 ft | 555 kts | 141° |
| 2026-05-05 19:20 | 30.75053 | -91.90391 | 44927 ft | 555 kts | 141° |
| 2026-05-05 19:20 | 30.69604 | -91.84018 | 44931 ft | 555 kts | 141° |
| 2026-05-05 19:21 | 30.64155 | -91.77660 | 44923 ft | 555 kts | 141° |
| 2026-05-05 19:21 | 30.58704 | -91.71307 | 44927 ft | 555 kts | 141° |
| 2026-05-05 19:22 | 30.53248 | -91.64961 | 44927 ft | 555 kts | 141° |
| 2026-05-05 19:22 | 30.47800 | -91.58635 | 44929 ft | 554 kts | 141° |
| 2026-05-05 19:23 | 30.42344 | -91.52309 | 44935 ft | 554 kts | 141° |
| 2026-05-05 19:23 | 30.36888 | -91.45995 | 44940 ft | 554 kts | 141° |
| 2026-05-05 19:24 | 30.31437 | -91.39696 | 44942 ft | 554 kts | 141° |
| 2026-05-05 19:24 | 30.26026 | -91.33454 | 44938 ft | 554 kts | 141° |
| 2026-05-05 19:25 | 30.20560 | -91.27160 | 44945 ft | 554 kts | 141° |
| 2026-05-05 19:25 | 30.15099 | -91.20881 | 44948 ft | 554 kts | 141° |
| 2026-05-05 19:26 | 30.14179 | -91.19825 | 44943 ft | 554 kts | 141° |